sensor_id;sensor_type;location;lat;lon;timestamp;temperature;humidity
2729;DHT22;1372;47.956;7.830;2023-07-29T00:00:36;17.90;99.90
2729;DHT22;1372;47.956;7.830;2023-07-29T00:03:07;17.90;99.90
2729;DHT22;1372;47.956;7.830;2023-07-29T00:05:36;17.90;99.90
2729;DHT22;1372;47.956;7.830;2023-07-29T00:08:06;17.90;99.90
2729;DHT22;1372;47.956;7.830;2023-07-29T00:10:36;17.90;99.90
2729;DHT22;1372;47.956;7.830;2023-07-29T00:13:06;17.90;99.90
2729;DHT22;1372;47.956;7.830;2023-07-29T00:15:37;17.90;99.90
2729;DHT22;1372;47.956;7.830;2023-07-29T00:18:07;17.90;99.90
2729;DHT22;1372;47.956;7.830;2023-07-29T00:20:36;17.90;99.90
2729;DHT22;1372;47.956;7.830;2023-07-29T00:23:06;17.90;99.90
2729;DHT22;1372;47.956;7.830;2023-07-29T00:25:34;17.90;99.90
2729;DHT22;1372;47.956;7.830;2023-07-29T00:28:03;17.80;99.90
2729;DHT22;1372;47.956;7.830;2023-07-29T00:30:32;17.90;99.90
2729;DHT22;1372;47.956;7.830;2023-07-29T00:33:01;17.90;99.90
2729;DHT22;1372;47.956;7.830;2023-07-29T00:35:31;17.80;99.90
2729;DHT22;1372;47.956;7.830;2023-07-29T00:38:00;17.90;99.90
2729;DHT22;1372;47.956;7.830;2023-07-29T00:40:29;17.80;99.90
2729;DHT22;1372;47.956;7.830;2023-07-29T00:42:59;17.80;99.90
2729;DHT22;1372;47.956;7.830;2023-07-29T00:45:29;17.80;99.90
2729;DHT22;1372;47.956;7.830;2023-07-29T00:48:01;17.90;99.90
2729;DHT22;1372;47.956;7.830;2023-07-29T00:50:33;17.90;99.90
2729;DHT22;1372;47.956;7.830;2023-07-29T00:53:02;17.90;99.90
2729;DHT22;1372;47.956;7.830;2023-07-29T00:55:30;17.90;99.90
2729;DHT22;1372;47.956;7.830;2023-07-29T00:58:00;17.90;99.90
2729;DHT22;1372;47.956;7.830;2023-07-29T01:00:28;18.00;99.90
2729;DHT22;1372;47.956;7.830;2023-07-29T01:02:58;18.10;99.90
2729;DHT22;1372;47.956;7.830;2023-07-29T01:05:32;18.10;99.90
2729;DHT22;1372;47.956;7.830;2023-07-29T01:08:10;18.20;99.90
2729;DHT22;1372;47.956;7.830;2023-07-29T01:10:50;18.20;99.90
2729;DHT22;1372;47.956;7.830;2023-07-29T01:13:27;18.30;99.90
2729;DHT22;1372;47.956;7.830;2023-07-29T01:16:02;18.30;99.90
2729;DHT22;1372;47.956;7.830;2023-07-29T01:18:36;18.20;99.90
2729;DHT22;1372;47.956;7.830;2023-07-29T01:21:11;18.20;99.90
2729;DHT22;1372;47.956;7.830;2023-07-29T01:23:43;18.20;99.90
2729;DHT22;1372;47.956;7.830;2023-07-29T01:26:12;18.20;99.90
2729;DHT22;1372;47.956;7.830;2023-07-29T01:28:41;18.20;99.90
2729;DHT22;1372;47.956;7.830;2023-07-29T01:31:13;18.10;99.90
2729;DHT22;1372;47.956;7.830;2023-07-29T01:34:04;18.10;99.90
2729;DHT22;1372;47.956;7.830;2023-07-29T01:36:37;18.10;99.90
2729;DHT22;1372;47.956;7.830;2023-07-29T01:39:12;18.10;99.90
2729;DHT22;1372;47.956;7.830;2023-07-29T01:41:43;18.10;99.90
2729;DHT22;1372;47.956;7.830;2023-07-29T01:44:12;18.10;99.90
2729;DHT22;1372;47.956;7.830;2023-07-29T01:46:43;18.10;99.90
2729;DHT22;1372;47.956;7.830;2023-07-29T01:49:12;18.20;99.90
2729;DHT22;1372;47.956;7.830;2023-07-29T01:51:41;18.10;99.90
2729;DHT22;1372;47.956;7.830;2023-07-29T01:54:12;18.10;99.90
2729;DHT22;1372;47.956;7.830;2023-07-29T01:56:41;18.10;99.90
2729;DHT22;1372;47.956;7.830;2023-07-29T01:59:09;18.10;99.90
2729;DHT22;1372;47.956;7.830;2023-07-29T02:01:39;18.10;99.90
2729;DHT22;1372;47.956;7.830;2023-07-29T02:04:08;18.00;99.90
2729;DHT22;1372;47.956;7.830;2023-07-29T02:06:36;18.10;99.90
2729;DHT22;1372;47.956;7.830;2023-07-29T02:09:05;18.10;99.90
2729;DHT22;1372;47.956;7.830;2023-07-29T02:11:36;18.00;99.90
2729;DHT22;1372;47.956;7.830;2023-07-29T02:14:05;18.10;99.90
2729;DHT22;1372;47.956;7.830;2023-07-29T02:16:33;18.10;99.90
2729;DHT22;1372;47.956;7.830;2023-07-29T02:19:03;18.10;99.90
2729;DHT22;1372;47.956;7.830;2023-07-29T02:21:32;18.10;99.90
2729;DHT22;1372;47.956;7.830;2023-07-29T02:24:01;18.10;99.90
2729;DHT22;1372;47.956;7.830;2023-07-29T02:26:30;18.10;99.90
2729;DHT22;1372;47.956;7.830;2023-07-29T02:29:00;18.10;99.90
2729;DHT22;1372;47.956;7.830;2023-07-29T02:31:29;18.20;99.90
2729;DHT22;1372;47.956;7.830;2023-07-29T02:33:58;18.20;99.90
2729;DHT22;1372;47.956;7.830;2023-07-29T02:36:27;18.20;99.90
2729;DHT22;1372;47.956;7.830;2023-07-29T02:38:56;18.20;99.90
2729;DHT22;1372;47.956;7.830;2023-07-29T02:41:25;18.30;99.90
2729;DHT22;1372;47.956;7.830;2023-07-29T02:43:56;18.30;99.90
2729;DHT22;1372;47.956;7.830;2023-07-29T02:46:26;18.30;99.90
2729;DHT22;1372;47.956;7.830;2023-07-29T02:48:55;18.20;99.90
2729;DHT22;1372;47.956;7.830;2023-07-29T02:51:24;18.30;99.90
2729;DHT22;1372;47.956;7.830;2023-07-29T02:53:53;18.30;99.90
2729;DHT22;1372;47.956;7.830;2023-07-29T02:56:24;18.30;99.90
2729;DHT22;1372;47.956;7.830;2023-07-29T02:58:53;18.30;99.90
2729;DHT22;1372;47.956;7.830;2023-07-29T03:01:23;18.30;99.90
2729;DHT22;1372;47.956;7.830;2023-07-29T03:03:53;18.30;99.90
2729;DHT22;1372;47.956;7.830;2023-07-29T03:06:23;18.30;99.90
2729;DHT22;1372;47.956;7.830;2023-07-29T03:08:52;18.30;99.90
2729;DHT22;1372;47.956;7.830;2023-07-29T03:11:20;18.30;99.90
2729;DHT22;1372;47.956;7.830;2023-07-29T03:13:49;18.30;99.90
2729;DHT22;1372;47.956;7.830;2023-07-29T03:16:18;18.30;99.90
2729;DHT22;1372;47.956;7.830;2023-07-29T03:18:48;18.30;99.90
2729;DHT22;1372;47.956;7.830;2023-07-29T03:21:19;18.30;99.90
2729;DHT22;1372;47.956;7.830;2023-07-29T03:23:48;18.30;99.90
2729;DHT22;1372;47.956;7.830;2023-07-29T03:26:16;18.30;99.90
2729;DHT22;1372;47.956;7.830;2023-07-29T03:28:45;18.30;99.90
2729;DHT22;1372;47.956;7.830;2023-07-29T03:31:14;18.30;99.90
2729;DHT22;1372;47.956;7.830;2023-07-29T03:33:43;18.30;99.90
2729;DHT22;1372;47.956;7.830;2023-07-29T03:36:12;18.30;99.90
2729;DHT22;1372;47.956;7.830;2023-07-29T03:38:42;18.30;99.90
2729;DHT22;1372;47.956;7.830;2023-07-29T03:41:14;18.30;99.90
2729;DHT22;1372;47.956;7.830;2023-07-29T03:43:43;18.30;99.90
2729;DHT22;1372;47.956;7.830;2023-07-29T03:46:12;18.40;99.90
2729;DHT22;1372;47.956;7.830;2023-07-29T03:48:41;18.40;99.90
2729;DHT22;1372;47.956;7.830;2023-07-29T03:51:11;18.40;99.90
2729;DHT22;1372;47.956;7.830;2023-07-29T03:53:41;18.30;99.90
2729;DHT22;1372;47.956;7.830;2023-07-29T03:56:11;18.40;99.90
2729;DHT22;1372;47.956;7.830;2023-07-29T03:58:43;18.30;99.90
2729;DHT22;1372;47.956;7.830;2023-07-29T04:01:11;18.40;99.90
2729;DHT22;1372;47.956;7.830;2023-07-29T04:03:40;18.40;99.90
2729;DHT22;1372;47.956;7.830;2023-07-29T04:06:09;18.40;99.90
2729;DHT22;1372;47.956;7.830;2023-07-29T04:08:38;18.30;99.90
2729;DHT22;1372;47.956;7.830;2023-07-29T04:11:09;18.30;99.90
2729;DHT22;1372;47.956;7.830;2023-07-29T04:13:38;18.40;99.90
2729;DHT22;1372;47.956;7.830;2023-07-29T04:16:07;18.40;99.90
2729;DHT22;1372;47.956;7.830;2023-07-29T04:18:38;18.30;99.90
2729;DHT22;1372;47.956;7.830;2023-07-29T04:21:07;18.40;99.90
2729;DHT22;1372;47.956;7.830;2023-07-29T04:23:36;18.40;99.90
2729;DHT22;1372;47.956;7.830;2023-07-29T04:26:06;18.30;99.90
2729;DHT22;1372;47.956;7.830;2023-07-29T04:28:36;18.30;99.90
2729;DHT22;1372;47.956;7.830;2023-07-29T04:31:04;18.30;99.90
2729;DHT22;1372;47.956;7.830;2023-07-29T04:33:35;18.30;99.90
2729;DHT22;1372;47.956;7.830;2023-07-29T04:36:04;18.40;99.90
2729;DHT22;1372;47.956;7.830;2023-07-29T04:38:37;18.40;99.90
2729;DHT22;1372;47.956;7.830;2023-07-29T04:41:06;18.40;99.90
2729;DHT22;1372;47.956;7.830;2023-07-29T04:43:37;18.40;99.90
2729;DHT22;1372;47.956;7.830;2023-07-29T04:46:06;18.50;99.90
2729;DHT22;1372;47.956;7.830;2023-07-29T04:48:36;18.60;99.90
2729;DHT22;1372;47.956;7.830;2023-07-29T04:51:04;18.60;99.90
2729;DHT22;1372;47.956;7.830;2023-07-29T04:53:33;18.50;99.90
2729;DHT22;1372;47.956;7.830;2023-07-29T04:56:04;18.60;99.90
2729;DHT22;1372;47.956;7.830;2023-07-29T04:58:33;18.60;99.90
2729;DHT22;1372;47.956;7.830;2023-07-29T05:01:04;18.80;99.90
2729;DHT22;1372;47.956;7.830;2023-07-29T05:03:33;18.80;99.90
2729;DHT22;1372;47.956;7.830;2023-07-29T05:06:02;18.80;99.90
2729;DHT22;1372;47.956;7.830;2023-07-29T05:08:31;18.80;99.90
2729;DHT22;1372;47.956;7.830;2023-07-29T05:11:00;18.80;99.90
2729;DHT22;1372;47.956;7.830;2023-07-29T05:13:28;18.90;99.90
2729;DHT22;1372;47.956;7.830;2023-07-29T05:15:57;18.90;99.90
2729;DHT22;1372;47.956;7.830;2023-07-29T05:18:27;19.00;99.90
2729;DHT22;1372;47.956;7.830;2023-07-29T05:20:56;19.00;99.90
2729;DHT22;1372;47.956;7.830;2023-07-29T05:23:25;19.10;99.90
2729;DHT22;1372;47.956;7.830;2023-07-29T05:25:54;19.10;99.90
2729;DHT22;1372;47.956;7.830;2023-07-29T05:28:23;19.20;99.90
2729;DHT22;1372;47.956;7.830;2023-07-29T05:30:52;19.30;99.90
2729;DHT22;1372;47.956;7.830;2023-07-29T05:33:20;19.40;99.90
2729;DHT22;1372;47.956;7.830;2023-07-29T05:35:53;19.50;99.90
2729;DHT22;1372;47.956;7.830;2023-07-29T05:38:22;19.60;99.90
2729;DHT22;1372;47.956;7.830;2023-07-29T05:40:51;19.70;99.90
2729;DHT22;1372;47.956;7.830;2023-07-29T05:43:19;19.80;99.90
2729;DHT22;1372;47.956;7.830;2023-07-29T05:45:48;19.90;99.90
2729;DHT22;1372;47.956;7.830;2023-07-29T05:48:19;19.80;99.90
2729;DHT22;1372;47.956;7.830;2023-07-29T05:50:49;19.90;99.90
2729;DHT22;1372;47.956;7.830;2023-07-29T05:53:19;19.90;99.90
2729;DHT22;1372;47.956;7.830;2023-07-29T05:55:48;19.90;99.90
2729;DHT22;1372;47.956;7.830;2023-07-29T05:58:19;20.00;99.90
2729;DHT22;1372;47.956;7.830;2023-07-29T06:00:48;20.00;99.90
2729;DHT22;1372;47.956;7.830;2023-07-29T06:03:17;20.00;99.90
2729;DHT22;1372;47.956;7.830;2023-07-29T06:05:46;20.00;99.90
2729;DHT22;1372;47.956;7.830;2023-07-29T06:08:15;20.00;99.90
2729;DHT22;1372;47.956;7.830;2023-07-29T06:10:45;20.10;99.90
2729;DHT22;1372;47.956;7.830;2023-07-29T06:13:15;20.20;99.90
2729;DHT22;1372;47.956;7.830;2023-07-29T06:15:44;20.20;99.90
2729;DHT22;1372;47.956;7.830;2023-07-29T06:18:13;20.20;99.90
2729;DHT22;1372;47.956;7.830;2023-07-29T06:20:42;20.30;99.90
2729;DHT22;1372;47.956;7.830;2023-07-29T06:23:11;20.40;99.90
2729;DHT22;1372;47.956;7.830;2023-07-29T06:25:39;20.40;99.90
2729;DHT22;1372;47.956;7.830;2023-07-29T06:28:10;20.40;99.90
2729;DHT22;1372;47.956;7.830;2023-07-29T06:30:39;20.50;99.90
2729;DHT22;1372;47.956;7.830;2023-07-29T06:33:08;20.50;99.90
2729;DHT22;1372;47.956;7.830;2023-07-29T06:35:37;20.50;99.90
2729;DHT22;1372;47.956;7.830;2023-07-29T06:38:05;20.50;99.90
2729;DHT22;1372;47.956;7.830;2023-07-29T06:40:36;20.50;99.90
2729;DHT22;1372;47.956;7.830;2023-07-29T06:43:05;20.60;99.90
2729;DHT22;1372;47.956;7.830;2023-07-29T06:45:36;20.60;99.90
2729;DHT22;1372;47.956;7.830;2023-07-29T06:48:04;20.60;99.90
2729;DHT22;1372;47.956;7.830;2023-07-29T06:50:33;20.50;99.90
2729;DHT22;1372;47.956;7.830;2023-07-29T06:53:03;20.40;99.90
2729;DHT22;1372;47.956;7.830;2023-07-29T06:55:32;20.30;99.90
2729;DHT22;1372;47.956;7.830;2023-07-29T06:58:00;20.30;99.90
2729;DHT22;1372;47.956;7.830;2023-07-29T07:00:29;20.30;99.90
2729;DHT22;1372;47.956;7.830;2023-07-29T07:03:00;20.30;99.90
2729;DHT22;1372;47.956;7.830;2023-07-29T07:05:29;20.30;99.90
2729;DHT22;1372;47.956;7.830;2023-07-29T07:07:57;20.30;99.90
2729;DHT22;1372;47.956;7.830;2023-07-29T07:10:26;20.30;99.90
2729;DHT22;1372;47.956;7.830;2023-07-29T07:12:55;20.30;99.90
2729;DHT22;1372;47.956;7.830;2023-07-29T07:15:26;20.30;99.90
2729;DHT22;1372;47.956;7.830;2023-07-29T07:17:55;20.40;99.90
2729;DHT22;1372;47.956;7.830;2023-07-29T07:20:25;20.30;99.90
2729;DHT22;1372;47.956;7.830;2023-07-29T07:22:54;20.30;99.90
2729;DHT22;1372;47.956;7.830;2023-07-29T07:25:23;20.30;99.90
2729;DHT22;1372;47.956;7.830;2023-07-29T07:27:54;20.30;99.90
2729;DHT22;1372;47.956;7.830;2023-07-29T07:30:23;20.30;99.90
2729;DHT22;1372;47.956;7.830;2023-07-29T07:32:52;20.30;99.90
2729;DHT22;1372;47.956;7.830;2023-07-29T07:35:21;20.40;99.90
2729;DHT22;1372;47.956;7.830;2023-07-29T07:37:52;20.50;99.90
2729;DHT22;1372;47.956;7.830;2023-07-29T07:40:20;20.60;99.90
2729;DHT22;1372;47.956;7.830;2023-07-29T07:42:50;20.60;99.90
2729;DHT22;1372;47.956;7.830;2023-07-29T07:45:19;20.60;99.90
2729;DHT22;1372;47.956;7.830;2023-07-29T07:47:49;20.70;99.90
2729;DHT22;1372;47.956;7.830;2023-07-29T07:50:20;20.70;99.90
2729;DHT22;1372;47.956;7.830;2023-07-29T07:52:53;20.80;99.90
2729;DHT22;1372;47.956;7.830;2023-07-29T07:55:23;20.80;99.90
2729;DHT22;1372;47.956;7.830;2023-07-29T07:57:55;20.90;99.90
2729;DHT22;1372;47.956;7.830;2023-07-29T08:00:26;20.90;99.90
2729;DHT22;1372;47.956;7.830;2023-07-29T08:02:56;20.90;99.90
2729;DHT22;1372;47.956;7.830;2023-07-29T08:05:30;20.90;99.90
2729;DHT22;1372;47.956;7.830;2023-07-29T08:08:01;21.00;99.90
2729;DHT22;1372;47.956;7.830;2023-07-29T08:10:31;21.00;99.90
2729;DHT22;1372;47.956;7.830;2023-07-29T08:13:07;21.10;99.90
2729;DHT22;1372;47.956;7.830;2023-07-29T08:15:37;21.10;99.90
2729;DHT22;1372;47.956;7.830;2023-07-29T08:18:10;21.20;99.90
2729;DHT22;1372;47.956;7.830;2023-07-29T08:20:39;21.20;99.90
2729;DHT22;1372;47.956;7.830;2023-07-29T08:23:09;21.20;99.90
2729;DHT22;1372;47.956;7.830;2023-07-29T08:25:38;21.30;99.90
2729;DHT22;1372;47.956;7.830;2023-07-29T08:28:07;21.30;99.90
2729;DHT22;1372;47.956;7.830;2023-07-29T08:30:38;21.30;99.90
2729;DHT22;1372;47.956;7.830;2023-07-29T08:33:07;21.40;99.90
2729;DHT22;1372;47.956;7.830;2023-07-29T08:35:36;21.50;99.90
2729;DHT22;1372;47.956;7.830;2023-07-29T08:38:04;21.50;99.90
2729;DHT22;1372;47.956;7.830;2023-07-29T08:40:35;21.50;99.90
2729;DHT22;1372;47.956;7.830;2023-07-29T08:43:06;21.50;99.90
2729;DHT22;1372;47.956;7.830;2023-07-29T08:45:36;21.50;99.90
2729;DHT22;1372;47.956;7.830;2023-07-29T08:48:08;21.50;99.90
2729;DHT22;1372;47.956;7.830;2023-07-29T08:50:39;21.50;99.90
2729;DHT22;1372;47.956;7.830;2023-07-29T08:53:08;21.60;99.90
2729;DHT22;1372;47.956;7.830;2023-07-29T08:55:40;21.60;99.90
2729;DHT22;1372;47.956;7.830;2023-07-29T08:58:09;21.70;99.90
2729;DHT22;1372;47.956;7.830;2023-07-29T09:00:38;21.70;99.90
2729;DHT22;1372;47.956;7.830;2023-07-29T09:03:08;21.70;99.90
2729;DHT22;1372;47.956;7.830;2023-07-29T09:05:37;21.60;99.90
2729;DHT22;1372;47.956;7.830;2023-07-29T09:08:06;21.60;99.90
2729;DHT22;1372;47.956;7.830;2023-07-29T09:10:35;21.60;99.90
2729;DHT22;1372;47.956;7.830;2023-07-29T09:13:07;21.70;99.90
2729;DHT22;1372;47.956;7.830;2023-07-29T09:15:36;21.80;99.90
2729;DHT22;1372;47.956;7.830;2023-07-29T09:18:10;21.80;99.90
2729;DHT22;1372;47.956;7.830;2023-07-29T09:20:42;21.80;99.90
2729;DHT22;1372;47.956;7.830;2023-07-29T09:23:16;21.90;99.90
2729;DHT22;1372;47.956;7.830;2023-07-29T09:25:46;22.00;99.90
2729;DHT22;1372;47.956;7.830;2023-07-29T09:28:17;22.00;99.90
2729;DHT22;1372;47.956;7.830;2023-07-29T09:30:46;22.00;99.90
2729;DHT22;1372;47.956;7.830;2023-07-29T09:33:18;22.00;99.90
2729;DHT22;1372;47.956;7.830;2023-07-29T09:35:47;22.10;99.90
2729;DHT22;1372;47.956;7.830;2023-07-29T09:38:16;22.10;99.90
2729;DHT22;1372;47.956;7.830;2023-07-29T09:40:45;22.20;99.90
2729;DHT22;1372;47.956;7.830;2023-07-29T09:43:18;22.20;99.90
2729;DHT22;1372;47.956;7.830;2023-07-29T09:45:47;22.30;99.90
2729;DHT22;1372;47.956;7.830;2023-07-29T09:48:19;22.30;99.90
2729;DHT22;1372;47.956;7.830;2023-07-29T09:50:51;22.30;99.90
2729;DHT22;1372;47.956;7.830;2023-07-29T09:53:21;22.40;99.90
2729;DHT22;1372;47.956;7.830;2023-07-29T09:55:50;22.40;99.90
2729;DHT22;1372;47.956;7.830;2023-07-29T09:58:26;22.50;99.90
2729;DHT22;1372;47.956;7.830;2023-07-29T10:00:56;22.50;99.90
2729;DHT22;1372;47.956;7.830;2023-07-29T10:03:25;22.60;99.90
2729;DHT22;1372;47.956;7.830;2023-07-29T10:05:55;22.60;99.90
2729;DHT22;1372;47.956;7.830;2023-07-29T10:08:24;22.60;99.90
2729;DHT22;1372;47.956;7.830;2023-07-29T10:10:54;22.70;99.90
2729;DHT22;1372;47.956;7.830;2023-07-29T10:13:26;22.70;99.90
2729;DHT22;1372;47.956;7.830;2023-07-29T10:15:55;22.70;99.90
2729;DHT22;1372;47.956;7.830;2023-07-29T10:18:24;22.70;99.90
2729;DHT22;1372;47.956;7.830;2023-07-29T10:20:56;22.80;99.90
2729;DHT22;1372;47.956;7.830;2023-07-29T10:23:28;22.70;99.90
2729;DHT22;1372;47.956;7.830;2023-07-29T10:26:03;22.70;99.90
2729;DHT22;1372;47.956;7.830;2023-07-29T10:28:39;22.70;99.90
2729;DHT22;1372;47.956;7.830;2023-07-29T10:31:09;22.80;99.90
2729;DHT22;1372;47.956;7.830;2023-07-29T10:33:39;22.90;99.90
2729;DHT22;1372;47.956;7.830;2023-07-29T10:36:09;22.90;99.90
2729;DHT22;1372;47.956;7.830;2023-07-29T10:38:38;23.00;99.90
2729;DHT22;1372;47.956;7.830;2023-07-29T10:41:07;22.90;99.90
2729;DHT22;1372;47.956;7.830;2023-07-29T10:43:38;23.00;99.90
2729;DHT22;1372;47.956;7.830;2023-07-29T10:46:15;23.10;99.90
2729;DHT22;1372;47.956;7.830;2023-07-29T10:48:52;23.20;99.90
2729;DHT22;1372;47.956;7.830;2023-07-29T10:51:27;23.40;99.90
2729;DHT22;1372;47.956;7.830;2023-07-29T10:54:02;23.40;99.90
2729;DHT22;1372;47.956;7.830;2023-07-29T10:56:34;23.40;99.90
2729;DHT22;1372;47.956;7.830;2023-07-29T11:02:17;23.50;99.90
2729;DHT22;1372;47.956;7.830;2023-07-29T11:04:50;23.50;99.90
2729;DHT22;1372;47.956;7.830;2023-07-29T11:07:20;23.50;99.90
2729;DHT22;1372;47.956;7.830;2023-07-29T11:09:58;23.70;99.90
2729;DHT22;1372;47.956;7.830;2023-07-29T11:12:39;23.90;99.90
2729;DHT22;1372;47.956;7.830;2023-07-29T11:15:25;24.00;99.90
2729;DHT22;1372;47.956;7.830;2023-07-29T11:17:56;24.10;99.90
2729;DHT22;1372;47.956;7.830;2023-07-29T11:20:27;24.10;99.90
2729;DHT22;1372;47.956;7.830;2023-07-29T11:22:58;24.10;99.90
2729;DHT22;1372;47.956;7.830;2023-07-29T11:25:28;24.10;99.90
2729;DHT22;1372;47.956;7.830;2023-07-29T11:27:59;24.10;99.90
2729;DHT22;1372;47.956;7.830;2023-07-29T11:30:39;24.00;99.90
2729;DHT22;1372;47.956;7.830;2023-07-29T11:33:08;24.20;99.90
2729;DHT22;1372;47.956;7.830;2023-07-29T11:35:40;24.20;99.90
2729;DHT22;1372;47.956;7.830;2023-07-29T11:38:14;24.10;99.90
2729;DHT22;1372;47.956;7.830;2023-07-29T11:40:48;24.00;99.90
2729;DHT22;1372;47.956;7.830;2023-07-29T11:43:22;24.10;99.90
2729;DHT22;1372;47.956;7.830;2023-07-29T11:45:55;24.30;99.90
2729;DHT22;1372;47.956;7.830;2023-07-29T11:48:27;24.40;99.90
2729;DHT22;1372;47.956;7.830;2023-07-29T11:50:57;24.50;99.90
2729;DHT22;1372;47.956;7.830;2023-07-29T11:53:28;24.40;99.90
2729;DHT22;1372;47.956;7.830;2023-07-29T11:55:58;24.30;99.90
2729;DHT22;1372;47.956;7.830;2023-07-29T11:58:27;24.30;99.90
2729;DHT22;1372;47.956;7.830;2023-07-29T12:00:57;24.20;99.90
2729;DHT22;1372;47.956;7.830;2023-07-29T12:03:26;24.20;99.90
2729;DHT22;1372;47.956;7.830;2023-07-29T12:05:56;24.20;99.90
2729;DHT22;1372;47.956;7.830;2023-07-29T12:08:25;24.30;99.90
2729;DHT22;1372;47.956;7.830;2023-07-29T12:10:54;24.20;99.90
2729;DHT22;1372;47.956;7.830;2023-07-29T12:13:24;24.30;99.90
2729;DHT22;1372;47.956;7.830;2023-07-29T12:16:03;24.20;99.90
2729;DHT22;1372;47.956;7.830;2023-07-29T12:18:33;24.10;99.90
2729;DHT22;1372;47.956;7.830;2023-07-29T12:21:02;24.10;99.90
2729;DHT22;1372;47.956;7.830;2023-07-29T12:23:31;24.10;99.90
2729;DHT22;1372;47.956;7.830;2023-07-29T12:26:00;24.10;99.90
2729;DHT22;1372;47.956;7.830;2023-07-29T12:28:30;24.10;99.90
2729;DHT22;1372;47.956;7.830;2023-07-29T12:30:59;24.10;99.90
2729;DHT22;1372;47.956;7.830;2023-07-29T12:33:34;24.10;99.90
2729;DHT22;1372;47.956;7.830;2023-07-29T12:36:05;24.10;99.90
2729;DHT22;1372;47.956;7.830;2023-07-29T12:38:37;24.00;99.90
2729;DHT22;1372;47.956;7.830;2023-07-29T12:41:05;24.00;99.90
2729;DHT22;1372;47.956;7.830;2023-07-29T12:43:35;23.90;99.90
2729;DHT22;1372;47.956;7.830;2023-07-29T12:46:04;23.90;99.90
2729;DHT22;1372;47.956;7.830;2023-07-29T12:48:38;23.90;99.90
2729;DHT22;1372;47.956;7.830;2023-07-29T12:51:10;23.90;99.90
2729;DHT22;1372;47.956;7.830;2023-07-29T12:53:46;23.80;99.90
2729;DHT22;1372;47.956;7.830;2023-07-29T12:56:17;23.80;99.90
2729;DHT22;1372;47.956;7.830;2023-07-29T12:58:46;23.80;99.90
2729;DHT22;1372;47.956;7.830;2023-07-29T13:01:15;23.80;99.90
2729;DHT22;1372;47.956;7.830;2023-07-29T13:03:57;23.80;99.90
2729;DHT22;1372;47.956;7.830;2023-07-29T13:06:26;23.80;99.90
2729;DHT22;1372;47.956;7.830;2023-07-29T13:08:58;23.80;99.90
2729;DHT22;1372;47.956;7.830;2023-07-29T13:11:26;23.80;99.90
2729;DHT22;1372;47.956;7.830;2023-07-29T13:13:58;23.80;99.90
2729;DHT22;1372;47.956;7.830;2023-07-29T13:16:27;23.70;99.90
2729;DHT22;1372;47.956;7.830;2023-07-29T13:18:59;23.70;99.90
2729;DHT22;1372;47.956;7.830;2023-07-29T13:21:30;23.80;99.90
2729;DHT22;1372;47.956;7.830;2023-07-29T13:24:02;23.90;99.90
2729;DHT22;1372;47.956;7.830;2023-07-29T13:26:31;24.00;99.90
2729;DHT22;1372;47.956;7.830;2023-07-29T13:29:01;24.10;99.90
2729;DHT22;1372;47.956;7.830;2023-07-29T13:31:33;24.30;99.90
2729;DHT22;1372;47.956;7.830;2023-07-29T13:34:03;24.50;99.90
2729;DHT22;1372;47.956;7.830;2023-07-29T13:36:32;24.40;99.90
2729;DHT22;1372;47.956;7.830;2023-07-29T13:39:03;24.40;99.90
2729;DHT22;1372;47.956;7.830;2023-07-29T13:41:32;24.30;99.90
2729;DHT22;1372;47.956;7.830;2023-07-29T13:44:01;24.30;99.90
2729;DHT22;1372;47.956;7.830;2023-07-29T13:46:34;24.40;99.90
2729;DHT22;1372;47.956;7.830;2023-07-29T13:49:05;24.40;99.90
2729;DHT22;1372;47.956;7.830;2023-07-29T13:51:34;24.50;99.90
2729;DHT22;1372;47.956;7.830;2023-07-29T13:54:04;24.50;99.90
2729;DHT22;1372;47.956;7.830;2023-07-29T13:56:33;24.50;99.90
2729;DHT22;1372;47.956;7.830;2023-07-29T13:59:02;24.50;99.90
2729;DHT22;1372;47.956;7.830;2023-07-29T14:01:31;24.50;99.90
2729;DHT22;1372;47.956;7.830;2023-07-29T14:04:01;24.40;99.90
2729;DHT22;1372;47.956;7.830;2023-07-29T14:06:34;24.30;99.90
2729;DHT22;1372;47.956;7.830;2023-07-29T14:09:12;24.10;99.90
2729;DHT22;1372;47.956;7.830;2023-07-29T14:11:41;23.90;99.90
2729;DHT22;1372;47.956;7.830;2023-07-29T14:14:10;23.80;99.90
2729;DHT22;1372;47.956;7.830;2023-07-29T14:16:39;23.70;99.90
2729;DHT22;1372;47.956;7.830;2023-07-29T14:19:08;23.60;99.90
2729;DHT22;1372;47.956;7.830;2023-07-29T14:21:41;23.50;99.90
2729;DHT22;1372;47.956;7.830;2023-07-29T14:24:10;23.20;99.90
2729;DHT22;1372;47.956;7.830;2023-07-29T14:26:39;23.00;99.90
2729;DHT22;1372;47.956;7.830;2023-07-29T14:29:08;22.70;99.90
2729;DHT22;1372;47.956;7.830;2023-07-29T14:31:38;22.40;99.90
2729;DHT22;1372;47.956;7.830;2023-07-29T14:34:07;22.20;99.90
2729;DHT22;1372;47.956;7.830;2023-07-29T14:36:36;22.00;99.90
2729;DHT22;1372;47.956;7.830;2023-07-29T14:39:07;21.90;99.90
2729;DHT22;1372;47.956;7.830;2023-07-29T14:41:36;22.00;99.90
2729;DHT22;1372;47.956;7.830;2023-07-29T14:44:06;22.10;99.90
2729;DHT22;1372;47.956;7.830;2023-07-29T14:46:35;22.20;99.90
2729;DHT22;1372;47.956;7.830;2023-07-29T14:49:06;22.30;99.90
2729;DHT22;1372;47.956;7.830;2023-07-29T14:51:35;22.30;99.90
2729;DHT22;1372;47.956;7.830;2023-07-29T14:54:04;22.40;99.90
2729;DHT22;1372;47.956;7.830;2023-07-29T14:56:35;22.00;99.90
2729;DHT22;1372;47.956;7.830;2023-07-29T14:59:04;21.90;99.90
2729;DHT22;1372;47.956;7.830;2023-07-29T15:01:33;21.80;99.90
2729;DHT22;1372;47.956;7.830;2023-07-29T15:04:02;21.80;99.90
2729;DHT22;1372;47.956;7.830;2023-07-29T15:06:32;21.80;99.90
2729;DHT22;1372;47.956;7.830;2023-07-29T15:09:02;21.70;99.90
2729;DHT22;1372;47.956;7.830;2023-07-29T15:11:33;21.80;99.90
2729;DHT22;1372;47.956;7.830;2023-07-29T15:14:02;21.70;99.90
2729;DHT22;1372;47.956;7.830;2023-07-29T15:16:32;21.80;99.90
2729;DHT22;1372;47.956;7.830;2023-07-29T15:19:03;21.70;99.90
2729;DHT22;1372;47.956;7.830;2023-07-29T15:21:34;21.70;99.90
2729;DHT22;1372;47.956;7.830;2023-07-29T15:24:03;21.70;99.90
2729;DHT22;1372;47.956;7.830;2023-07-29T15:26:37;21.60;99.90
2729;DHT22;1372;47.956;7.830;2023-07-29T15:29:06;21.60;99.90
2729;DHT22;1372;47.956;7.830;2023-07-29T15:31:35;21.70;99.90
2729;DHT22;1372;47.956;7.830;2023-07-29T15:34:04;21.60;99.90
2729;DHT22;1372;47.956;7.830;2023-07-29T15:36:33;21.70;99.90
2729;DHT22;1372;47.956;7.830;2023-07-29T15:39:02;21.70;99.90
2729;DHT22;1372;47.956;7.830;2023-07-29T15:41:32;21.70;99.90
2729;DHT22;1372;47.956;7.830;2023-07-29T15:44:03;21.70;99.90
2729;DHT22;1372;47.956;7.830;2023-07-29T15:46:33;21.80;99.90
2729;DHT22;1372;47.956;7.830;2023-07-29T15:49:02;21.80;99.90
2729;DHT22;1372;47.956;7.830;2023-07-29T15:51:32;21.80;99.90
2729;DHT22;1372;47.956;7.830;2023-07-29T15:54:03;21.80;99.90
2729;DHT22;1372;47.956;7.830;2023-07-29T15:56:32;21.80;99.90
2729;DHT22;1372;47.956;7.830;2023-07-29T15:59:07;21.70;99.90
2729;DHT22;1372;47.956;7.830;2023-07-29T16:01:37;21.70;99.90
2729;DHT22;1372;47.956;7.830;2023-07-29T16:04:09;21.70;99.90
2729;DHT22;1372;47.956;7.830;2023-07-29T16:06:38;21.60;99.90
2729;DHT22;1372;47.956;7.830;2023-07-29T16:09:07;21.60;99.90
2729;DHT22;1372;47.956;7.830;2023-07-29T16:11:36;21.60;99.90
2729;DHT22;1372;47.956;7.830;2023-07-29T16:14:07;21.50;99.90
2729;DHT22;1372;47.956;7.830;2023-07-29T16:16:38;21.60;99.90
2729;DHT22;1372;47.956;7.830;2023-07-29T16:19:07;21.60;99.90
2729;DHT22;1372;47.956;7.830;2023-07-29T16:21:36;21.60;99.90
2729;DHT22;1372;47.956;7.830;2023-07-29T16:24:06;21.60;99.90